Time;durP1;ratioP1;P1;durP2;ratioP2;P2;SDS_P1;SDS_P2;PMS_P1;PMS_P2;Temp;Humidity;BMP_temperature;BMP_pressure;BME280_temperature;BME280_humidity;BME280_pressure;Samples;Min_cycle;Max_cycle;Signal;HPM_P1;HPM_P2
2023/09/22 00:01:52;;;;;;;6.23;3.70;;;17.70;99.90;;;;;;6158692;23;20203;-84
2023/09/22 00:04:27;;;;;;;26.93;6.97;;;17.60;99.90;;;;;;6159505;23;20503;-79
2023/09/22 00:06:56;;;;;;;11.57;4.50;;;17.60;99.90;;;;;;6202720;23;20211;-80
2023/09/22 00:09:25;;;;;;;6.97;3.70;;;17.60;99.90;;;;;;6188545;23;20167;-80
2023/09/22 00:11:53;;;;;;;6.60;3.80;;;17.50;99.90;;;;;;6164036;23;20170;-81
2023/09/22 00:14:26;;;;;;;5.20;3.80;;;17.50;99.90;;;;;;6189550;23;20179;-84
2023/09/22 00:16:55;;;;;;;7.80;4.13;;;17.50;99.90;;;;;;6213543;23;20170;-83
2023/09/22 00:19:26;;;;;;;6.20;3.77;;;17.70;99.90;;;;;;6214186;23;20187;-83
2023/09/22 00:21:55;;;;;;;6.67;3.70;;;17.50;99.90;;;;;;6188991;23;20199;-80
2023/09/22 00:24:30;;;;;;;6.43;3.77;;;17.40;99.90;;;;;;6190427;23;20321;-79
2023/09/22 00:27:00;;;;;;;8.40;4.30;;;17.40;99.90;;;;;;6163101;23;20179;-79
2023/09/22 00:29:28;;;;;;;7.17;3.40;;;17.40;99.90;;;;;;6214496;23;20170;-80
2023/09/22 00:31:57;;;;;;;11.47;4.33;;;17.30;99.90;;;;;;6188203;23;20171;-80
2023/09/22 00:34:35;;;;;;;7.90;4.00;;;17.50;99.90;;;;;;6163770;23;20200;-80
2023/09/22 00:37:11;;;;;;;6.63;3.90;;;17.30;99.90;;;;;;6189240;23;20187;-80
2023/09/22 00:39:41;;;;;;;5.10;3.40;;;17.30;99.90;;;;;;6213202;23;20502;-78
2023/09/22 00:42:13;;;;;;;10.77;4.37;;;17.40;99.90;;;;;;6162692;23;20183;-81
2023/09/22 00:44:42;;;;;;;5.80;3.80;;;17.40;99.90;;;;;;6187648;23;20171;-79
2023/09/22 00:47:15;;;;;;;6.47;3.80;;;17.20;99.90;;;;;;6188612;23;20167;-80
2023/09/22 00:49:45;;;;;;;6.67;3.73;;;17.30;99.90;;;;;;6187847;23;20629;-82
2023/09/22 00:52:18;;;;;;;6.60;3.37;;;17.40;99.90;;;;;;6188962;23;20245;-83
2023/09/22 00:54:50;;;;;;;5.97;3.70;;;17.30;99.90;;;;;;6188089;23;20166;-80
2023/09/22 00:57:23;;;;;;;5.33;3.50;;;17.30;99.90;;;;;;6187954;23;20250;-80
2023/09/22 00:59:56;;;;;;;4.83;3.37;;;17.30;99.90;;;;;;6214083;23;20174;-80
2023/09/22 01:02:25;;;;;;;4.53;3.30;;;17.10;99.90;;;;;;6214143;23;20163;-80
2023/09/22 01:04:55;;;;;;;4.97;3.33;;;17.20;99.90;;;;;;6187086;23;20262;-81
2023/09/22 01:07:26;;;;;;;5.20;3.37;;;17.20;99.90;;;;;;6182365;23;20207;-79
2023/09/22 01:09:54;;;;;;;6.00;3.23;;;17.30;99.90;;;;;;6183881;23;20238;-79
2023/09/22 01:12:22;;;;;;;9.07;3.93;;;17.30;99.90;;;;;;6182194;23;20172;-80
2023/09/22 01:14:52;;;;;;;5.70;3.40;;;17.20;99.90;;;;;;6182684;23;20670;-79
2023/09/22 01:17:24;;;;;;;6.73;3.43;;;17.30;99.90;;;;;;6159128;23;20175;-80
2023/09/22 01:19:52;;;;;;;11.23;3.73;;;17.30;99.90;;;;;;6184055;23;20167;-79
2023/09/22 01:22:28;;;;;;;6.77;3.60;;;17.10;99.90;;;;;;6182950;23;20184;-80
2023/09/22 01:24:57;;;;;;;5.57;3.13;;;17.30;99.90;;;;;;6182100;23;20207;-79
2023/09/22 01:27:25;;;;;;;5.17;3.23;;;17.30;99.90;;;;;;6157965;23;20176;-79
2023/09/22 01:29:56;;;;;;;5.03;3.40;;;17.30;99.90;;;;;;6183577;23;20654;-80
2023/09/22 01:32:24;;;;;;;5.87;3.47;;;17.30;99.90;;;;;;6182258;23;20172;-79
2023/09/22 01:34:53;;;;;;;10.77;3.67;;;17.30;99.90;;;;;;6183777;23;20164;-79
2023/09/22 01:37:28;;;;;;;9.03;3.57;;;17.30;99.90;;;;;;6182594;23;20631;-79
2023/09/22 01:40:00;;;;;;;5.70;3.13;;;17.60;99.90;;;;;;6158682;23;20175;-79
2023/09/22 01:42:31;;;;;;;5.50;3.23;;;17.30;99.90;;;;;;6158209;23;20606;-84
2023/09/22 01:45:03;;;;;;;7.83;3.30;;;17.30;99.90;;;;;;6183524;23;20167;-84
2023/09/22 01:47:32;;;;;;;24.37;6.13;;;17.40;99.90;;;;;;6184373;23;20168;-80
2023/09/22 01:50:01;;;;;;;5.10;3.20;;;17.50;99.90;;;;;;6182153;23;20168;-79
2023/09/22 01:52:29;;;;;;;5.03;3.03;;;17.30;99.90;;;;;;6157524;23;20255;-82
2023/09/22 01:54:59;;;;;;;4.77;3.10;;;17.30;99.90;;;;;;6181759;23;20168;-79
2023/09/22 01:57:28;;;;;;;5.17;3.03;;;17.20;99.90;;;;;;6157803;23;20613;-82
2023/09/22 01:59:58;;;;;;;3.87;2.70;;;17.30;99.90;;;;;;6158467;23;20185;-83
2023/09/22 02:02:27;;;;;;;5.13;3.30;;;17.30;99.90;;;;;;6158118;23;20650;-84
2023/09/22 02:05:03;;;;;;;5.53;3.27;;;17.30;99.90;;;;;;6185060;23;20570;-82
2023/09/22 02:07:34;;;;;;;5.20;3.13;;;17.30;99.90;;;;;;6181953;23;20198;-83
2023/09/22 02:10:13;;;;;;;5.20;3.13;;;17.30;99.90;;;;;;6181985;23;20171;-79
2023/09/22 02:12:44;;;;;;;5.67;3.13;;;17.20;99.90;;;;;;6157572;23;20171;-84
2023/09/22 02:15:13;;;;;;;7.00;3.30;;;17.20;99.90;;;;;;6181754;23;20245;-77
2023/09/22 02:17:42;;;;;;;11.37;4.30;;;17.20;99.90;;;;;;6183646;23;20160;-79
2023/09/22 02:20:23;;;;;;;5.37;2.77;;;17.20;99.90;;;;;;6181445;23;20222;-82
2023/09/22 02:22:55;;;;;;;6.30;3.43;;;17.20;99.90;;;;;;6181590;23;20182;-84
2023/09/22 02:25:24;;;;;;;6.33;3.40;;;17.20;99.90;;;;;;6182781;23;20175;-86
2023/09/22 02:27:56;;;;;;;5.60;3.10;;;17.20;99.90;;;;;;6182301;23;20176;-87
2023/09/22 02:30:27;;;;;;;6.30;3.30;;;17.20;99.90;;;;;;6157574;23;20175;-86
2023/09/22 02:33:10;;;;;;;5.77;3.00;;;17.10;99.90;;;;;;6183206;23;20231;-85
2023/09/22 02:35:41;;;;;;;4.93;3.30;;;17.10;99.90;;;;;;6183231;23;20198;-81
2023/09/22 02:38:10;;;;;;;5.93;3.40;;;16.90;99.90;;;;;;6206741;23;20171;-84
2023/09/22 02:40:44;;;;;;;5.10;3.10;;;17.20;99.90;;;;;;6181935;23;20195;-84
2023/09/22 02:43:16;;;;;;;6.43;3.20;;;17.20;99.90;;;;;;6182025;23;20197;-80
2023/09/22 02:45:50;;;;;;;6.17;3.10;;;17.10;99.90;;;;;;6181979;23;20163;-80
2023/09/22 02:48:22;;;;;;;6.97;3.50;;;17.20;99.90;;;;;;6157629;23;20170;-84
2023/09/22 02:50:54;;;;;;;4.83;3.17;;;17.10;99.90;;;;;;6181811;23;20186;-84
2023/09/22 02:53:22;;;;;;;7.30;3.57;;;17.30;99.90;;;;;;6181863;23;20297;-84
2023/09/22 02:55:52;;;;;;;5.60;3.20;;;17.10;99.90;;;;;;6181423;23;20172;-79
2023/09/22 02:58:23;;;;;;;6.40;3.40;;;17.00;99.90;;;;;;6157797;23;20497;-82
2023/09/22 03:00:52;;;;;;;5.20;3.20;;;17.00;99.90;;;;;;6181730;23;20195;-83
2023/09/22 03:03:24;;;;;;;5.90;3.37;;;17.10;99.90;;;;;;6157647;23;20183;-83
2023/09/22 03:05:59;;;;;;;6.40;3.40;;;17.00;99.90;;;;;;6188015;23;20203;-83
2023/09/22 03:08:29;;;;;;;5.00;3.20;;;17.00;99.90;;;;;;6186820;23;20190;-83
2023/09/22 03:11:00;;;;;;;6.73;3.30;;;17.00;99.90;;;;;;6161741;23;20353;-82
2023/09/22 03:13:29;;;;;;;7.03;3.57;;;17.00;99.90;;;;;;6213235;23;20521;-81
2023/09/22 03:15:57;;;;;;;6.13;3.40;;;17.00;99.90;;;;;;6162469;23;20210;-80
2023/09/22 03:18:26;;;;;;;5.57;3.07;;;17.10;99.90;;;;;;6214047;23;20497;-84
2023/09/22 03:20:55;;;;;;;6.03;3.10;;;17.00;99.90;;;;;;6186414;23;20562;-81
2023/09/22 03:23:24;;;;;;;8.60;3.50;;;16.90;99.90;;;;;;6162995;23;20241;-80
2023/09/22 03:25:54;;;;;;;17.53;5.17;;;16.90;99.90;;;;;;6187346;23;20171;-80
2023/09/22 03:28:25;;;;;;;6.83;3.70;;;16.90;99.90;;;;;;6162015;23;20171;-82
2023/09/22 03:30:57;;;;;;;5.47;3.40;;;16.90;99.90;;;;;;6187013;23;20254;-79
2023/09/22 03:33:28;;;;;;;5.37;3.27;;;16.80;99.90;;;;;;6188199;23;20245;-81
2023/09/22 03:35:57;;;;;;;5.53;3.50;;;16.90;99.90;;;;;;6186595;23;20195;-80
2023/09/22 03:38:28;;;;;;;5.63;3.47;;;16.90;99.90;;;;;;6186987;23;20172;-83
2023/09/22 03:41:00;;;;;;;6.73;3.10;;;16.80;99.90;;;;;;6213875;23;20244;-83
2023/09/22 03:43:28;;;;;;;5.63;3.50;;;16.80;99.90;;;;;;6163532;23;20615;-83
2023/09/22 03:45:58;;;;;;;4.03;3.27;;;16.80;99.90;;;;;;6163297;23;20170;-81
2023/09/22 03:48:39;;;;;;;4.50;3.20;;;16.80;99.90;;;;;;6165598;23;20543;-81
2023/09/22 03:51:11;;;;;;;5.97;3.30;;;16.70;99.90;;;;;;6189242;23;20215;-84
2023/09/22 03:53:59;;;;;;;5.97;3.57;;;16.60;99.90;;;;;;6188882;23;20607;-84
2023/09/22 03:56:40;;;;;;;7.47;3.70;;;16.70;99.90;;;;;;6213733;23;20174;-82
2023/09/22 03:59:13;;;;;;;5.63;3.20;;;16.80;99.90;;;;;;6214376;23;20181;-81
2023/09/22 04:01:42;;;;;;;4.97;3.10;;;16.80;99.90;;;;;;6163824;23;20199;-81
2023/09/22 04:04:12;;;;;;;4.33;3.10;;;16.70;99.90;;;;;;6163927;23;20183;-80
2023/09/22 04:06:48;;;;;;;8.10;3.80;;;16.70;99.90;;;;;;6159467;23;20217;-80
2023/09/22 04:09:17;;;;;;;5.83;3.50;;;16.70;99.90;;;;;;6182220;23;20509;-81
2023/09/22 04:11:46;;;;;;;5.80;3.77;;;16.80;99.90;;;;;;6182714;23;20206;-80
2023/09/22 04:14:31;;;;;;;6.20;3.33;;;16.70;99.90;;;;;;6183693;23;20174;-84
2023/09/22 04:17:08;;;;;;;6.40;3.43;;;16.70;99.90;;;;;;6122441;23;20165;-81
2023/09/22 04:19:37;;;;;;;5.30;3.40;;;16.70;99.90;;;;;;6097721;23;20177;-80
2023/09/22 04:22:07;;;;;;;4.67;3.50;;;16.60;99.90;;;;;;6097240;23;20515;-80
2023/09/22 04:24:36;;;;;;;7.83;3.37;;;16.60;99.90;;;;;;6098362;23;20248;-79
2023/09/22 04:27:09;;;;;;;6.53;3.77;;;16.50;99.90;;;;;;6097415;23;20557;-80
2023/09/22 04:29:38;;;;;;;5.63;3.77;;;16.50;99.90;;;;;;6098243;23;20202;-82
2023/09/22 04:32:14;;;;;;;6.93;3.90;;;16.50;99.90;;;;;;6121366;23;20212;-79
2023/09/22 04:34:43;;;;;;;5.50;3.90;;;16.50;99.90;;;;;;6091182;23;20234;-79
2023/09/22 04:37:15;;;;;;;7.40;3.90;;;16.40;99.90;;;;;;6183849;23;20195;-79
2023/09/22 04:39:48;;;;;;;10.60;4.73;;;16.50;99.90;;;;;;6158616;23;20572;-82
2023/09/22 04:42:17;;;;;;;6.97;4.23;;;16.50;99.90;;;;;;6184974;23;20179;-83
2023/09/22 04:44:45;;;;;;;7.10;4.33;;;16.50;99.90;;;;;;6183202;23;20214;-80
2023/09/22 04:47:13;;;;;;;7.60;4.37;;;16.30;99.90;;;;;;6184723;23;20174;-80
2023/09/22 04:49:48;;;;;;;8.83;4.50;;;16.50;99.90;;;;;;6207771;23;20179;-80
2023/09/22 04:52:20;;;;;;;8.50;4.40;;;16.50;99.90;;;;;;6183369;23;20191;-80
2023/09/22 04:54:51;;;;;;;8.67;3.97;;;16.50;99.90;;;;;;6182960;23;20175;-79
2023/09/22 04:57:20;;;;;;;7.47;4.27;;;16.40;99.90;;;;;;6182639;23;20251;-80
2023/09/22 04:59:52;;;;;;;9.17;4.50;;;16.50;99.90;;;;;;6158643;23;20566;-80
2023/09/22 05:02:22;;;;;;;6.67;4.30;;;16.60;99.90;;;;;;6182817;23;20238;-79
2023/09/22 05:04:53;;;;;;;7.30;4.20;;;16.50;99.90;;;;;;6184852;23;20160;-81
2023/09/22 05:07:28;;;;;;;7.27;4.30;;;16.50;99.90;;;;;;6182138;23;20205;-79
2023/09/22 05:09:59;;;;;;;7.17;4.03;;;16.60;99.90;;;;;;6183111;23;20544;-75
2023/09/22 05:12:26;;;;;;;9.20;4.63;;;16.60;99.90;;;;;;6183794;23;20189;-79
2023/09/22 05:14:58;;;;;;;11.73;4.67;;;16.60;99.90;;;;;;6181453;23;20168;-78
2023/09/22 05:17:25;;;;;;;8.37;4.00;;;16.70;99.90;;;;;;6183062;23;20174;-80
2023/09/22 05:19:53;;;;;;;6.47;3.80;;;16.70;99.90;;;;;;6182199;23;20255;-77
2023/09/22 05:22:23;;;;;;;6.93;4.00;;;16.80;99.90;;;;;;6183325;23;20215;-79
2023/09/22 05:24:52;;;;;;;6.13;3.50;;;16.90;99.90;;;;;;6183387;23;20167;-79
2023/09/22 05:27:19;;;;;;;6.93;3.90;;;16.90;99.90;;;;;;6183089;23;20167;-79
2023/09/22 05:29:47;;;;;;;8.07;4.00;;;16.90;99.90;;;;;;6182853;23;20164;-79
2023/09/22 05:32:15;;;;;;;5.47;3.50;;;16.90;99.90;;;;;;6183167;23;20531;-79
2023/09/22 05:34:43;;;;;;;9.13;4.30;;;17.00;99.90;;;;;;6181285;23;20182;-75
2023/09/22 05:37:11;;;;;;;9.43;3.77;;;17.10;99.90;;;;;;6182919;23;20195;-79
2023/09/22 05:39:38;;;;;;;5.13;3.50;;;17.10;99.90;;;;;;6182259;23;20175;-78
2023/09/22 05:42:06;;;;;;;4.90;3.50;;;17.20;99.90;;;;;;6183004;23;20277;-79
2023/09/22 05:44:34;;;;;;;6.03;3.77;;;17.30;99.90;;;;;;6182770;23;20499;-76
2023/09/22 05:47:03;;;;;;;10.40;4.30;;;17.30;99.90;;;;;;6184264;23;20583;-78
2023/09/22 05:49:30;;;;;;;7.10;3.80;;;17.30;99.90;;;;;;6182013;23;20171;-75
2023/09/22 05:51:57;;;;;;;7.40;3.30;;;17.50;99.90;;;;;;6182177;23;20191;-78
2023/09/22 05:54:25;;;;;;;7.43;3.60;;;17.90;99.90;;;;;;6182838;23;20176;-74
2023/09/22 05:56:53;;;;;;;9.50;3.70;;;17.70;99.90;;;;;;6183229;23;20678;-74
2023/09/22 05:59:22;;;;;;;7.63;3.63;;;17.80;99.90;;;;;;6182770;23;20494;-75
2023/09/22 06:01:49;;;;;;;5.30;3.47;;;17.90;99.90;;;;;;6181899;23;20226;-78
2023/09/22 06:04:17;;;;;;;9.03;3.60;;;18.10;99.90;;;;;;6182371;23;20662;-75
2023/09/22 06:06:45;;;;;;;7.47;3.70;;;18.20;99.90;;;;;;6181421;23;20527;-77
2023/09/22 06:09:14;;;;;;;5.50;3.43;;;18.30;99.90;;;;;;6183033;23;20603;-75
2023/09/22 06:11:42;;;;;;;5.83;3.50;;;18.50;99.90;;;;;;6182566;23;20168;-78
2023/09/22 06:14:11;;;;;;;7.03;3.43;;;18.60;99.90;;;;;;6182258;23;20178;-78
2023/09/22 06:16:40;;;;;;;9.57;3.90;;;18.70;99.90;;;;;;6179637;23;20254;-77
2023/09/22 06:19:10;;;;;;;9.07;3.73;;;18.80;99.90;;;;;;6182050;23;20195;-78
2023/09/22 06:21:40;;;;;;;8.60;3.67;;;19.00;99.90;;;;;;6205331;23;20211;-78
2023/09/22 06:24:08;;;;;;;6.43;3.60;;;19.10;99.90;;;;;;6181546;23;20178;-78
2023/09/22 06:26:36;;;;;;;7.47;4.00;;;19.30;99.90;;;;;;6182467;23;20171;-78
2023/09/22 06:29:05;;;;;;;6.10;3.60;;;19.50;99.90;;;;;;6183479;23;20171;-78
2023/09/22 06:31:33;;;;;;;10.63;4.50;;;19.60;99.90;;;;;;6181596;23;20179;-78
2023/09/22 06:34:01;;;;;;;6.57;3.70;;;19.80;99.90;;;;;;6182105;23;20194;-78
2023/09/22 06:36:28;;;;;;;7.53;3.70;;;19.90;99.90;;;;;;6183761;23;20530;-75
2023/09/22 06:38:56;;;;;;;6.33;3.83;;;20.00;99.90;;;;;;6183367;23;20171;-74
2023/09/22 06:41:23;;;;;;;9.17;4.17;;;20.00;99.90;;;;;;6183789;23;20164;-79
2023/09/22 06:43:53;;;;;;;8.40;3.77;;;20.10;99.90;;;;;;6182313;23;20159;-76
2023/09/22 06:46:25;;;;;;;7.80;4.13;;;20.20;99.90;;;;;;6181600;23;20191;-79
2023/09/22 06:48:53;;;;;;;7.20;4.10;;;20.10;99.90;;;;;;6182163;23;20171;-75
2023/09/22 06:51:21;;;;;;;8.63;4.50;;;20.20;99.90;;;;;;6181894;23;20635;-74
2023/09/22 06:53:49;;;;;;;6.07;4.03;;;20.30;99.90;;;;;;6182391;23;20172;-79
2023/09/22 06:56:18;;;;;;;9.00;4.23;;;20.20;99.90;;;;;;6182443;23;20538;-75
2023/09/22 06:58:47;;;;;;;6.90;4.63;;;20.30;99.90;;;;;;6206592;23;20242;-76
2023/09/22 07:01:16;;;;;;;10.10;4.80;;;20.30;99.90;;;;;;6181730;23;20160;-77
2023/09/22 07:03:45;;;;;;;12.83;5.23;;;20.30;99.90;;;;;;6180517;23;20505;-79
2023/09/22 07:06:16;;;;;;;10.03;4.67;;;20.30;99.90;;;;;;6191636;23;20256;-78
2023/09/22 07:08:46;;;;;;;7.63;4.40;;;20.30;99.90;;;;;;6213374;23;20185;-77
2023/09/22 07:11:18;;;;;;;12.33;4.90;;;20.40;99.90;;;;;;6212940;23;20198;-77
2023/09/22 07:13:47;;;;;;;7.50;4.10;;;20.50;99.90;;;;;;6211552;23;20508;-77
2023/09/22 07:16:15;;;;;;;9.80;4.33;;;20.40;99.90;;;;;;6212633;23;20214;-77
2023/09/22 07:18:42;;;;;;;7.27;4.60;;;20.60;99.90;;;;;;6213728;23;20171;-79
2023/09/22 07:21:11;;;;;;;8.07;4.37;;;20.60;99.90;;;;;;6215051;23;20202;-75
2023/09/22 07:23:38;;;;;;;12.80;4.67;;;20.70;99.90;;;;;;6213815;23;20202;-78
2023/09/22 07:26:09;;;;;;;6.73;4.47;;;20.80;99.90;;;;;;6216373;23;20634;-77
2023/09/22 07:28:37;;;;;;;8.17;4.67;;;20.90;99.90;;;;;;6214746;23;20159;-76
2023/09/22 07:31:15;;;;;;;9.37;4.90;;;20.80;99.90;;;;;;6214762;23;20221;-76
2023/09/22 07:33:43;;;;;;;8.03;4.70;;;20.80;99.90;;;;;;6215086;23;20171;-79
2023/09/22 07:36:12;;;;;;;9.03;4.67;;;20.90;99.90;;;;;;6214229;23;20298;-79
2023/09/22 07:38:40;;;;;;;9.10;4.60;;;20.90;99.90;;;;;;6214826;23;20250;-76
2023/09/22 07:41:08;;;;;;;10.07;4.80;;;21.10;99.90;;;;;;6213831;23;20201;-77
2023/09/22 07:43:36;;;;;;;9.77;4.93;;;21.10;99.90;;;;;;6188015;23;20199;-79
2023/09/22 07:46:06;;;;;;;8.63;4.80;;;21.20;99.90;;;;;;6213733;23;20171;-78
2023/09/22 07:48:35;;;;;;;11.20;5.47;;;21.30;99.90;;;;;;6214068;23;20198;-79
2023/09/22 07:51:02;;;;;;;9.43;5.27;;;21.40;99.90;;;;;;6213221;23;20218;-75
2023/09/22 07:53:30;;;;;;;8.90;4.87;;;21.50;99.90;;;;;;6214616;23;20183;-78
2023/09/22 07:56:01;;;;;;;7.73;4.80;;;21.60;99.90;;;;;;6212604;23;20258;-74
2023/09/22 07:58:29;;;;;;;8.97;5.00;;;21.70;99.90;;;;;;6214388;23;20249;-76
2023/09/22 08:00:59;;;;;;;11.67;5.37;;;21.70;99.90;;;;;;6212648;23;20173;-78
2023/09/22 08:03:27;;;;;;;11.40;5.27;;;21.80;99.90;;;;;;6214770;23;20641;-80
2023/09/22 08:05:55;;;;;;;9.23;4.93;;;21.80;99.90;;;;;;6213263;23;20194;-79
2023/09/22 08:08:24;;;;;;;9.13;4.87;;;21.90;99.90;;;;;;6212952;23;20254;-76
2023/09/22 08:10:53;;;;;;;10.17;5.17;;;22.00;99.90;;;;;;6213612;23;20171;-79
2023/09/22 08:13:21;;;;;;;9.03;5.03;;;22.20;99.90;;;;;;6212651;23;20610;-78
2023/09/22 08:15:49;;;;;;;8.13;4.93;;;22.40;99.90;;;;;;6213188;23;20736;-79
2023/09/22 08:18:17;;;;;;;9.70;5.03;;;23.20;99.90;;;;;;6212583;23;20171;-79
2023/09/22 08:20:45;;;;;;;9.17;5.07;;;23.80;99.90;;;;;;6212486;23;20635;-80
2023/09/22 08:23:12;;;;;;;12.70;5.33;;;24.50;99.90;;;;;;6212525;23;20206;-82
2023/09/22 08:25:43;;;;;;;12.30;5.30;;;25.00;99.90;;;;;;6214781;23;20202;-76
2023/09/22 08:28:15;;;;;;;7.75;5.20;;;25.40;99.90;;;;;;6187597;23;20151;-75
2023/09/22 08:30:42;;;;;;;8.20;5.30;;;25.70;99.90;;;;;;6212343;23;20178;-76
2023/09/22 08:33:10;;;;;;;10.43;5.35;;;26.00;99.90;;;;;;6213494;23;20224;-79
2023/09/22 08:35:39;;;;;;;8.23;4.55;;;26.30;99.90;;;;;;6213151;23;20708;-80
2023/09/22 08:38:29;;;;;;;12.82;5.85;;;26.30;99.90;;;;;;6213805;23;20167;-75
2023/09/22 08:40:58;;;;;;;9.77;4.85;;;26.20;99.90;;;;;;6213352;23;20171;-76
2023/09/22 08:43:27;;;;;;;10.75;5.30;;;26.40;99.90;;;;;;6214258;23;20191;-79
2023/09/22 08:45:55;;;;;;;10.77;5.40;;;26.50;99.90;;;;;;6213209;23;20178;-80
2023/09/22 08:48:26;;;;;;;10.07;5.20;;;26.40;99.90;;;;;;6213575;23;20565;-76
2023/09/22 08:50:54;;;;;;;16.70;5.97;;;26.60;99.90;;;;;;6213586;23;20186;-78
2023/09/22 08:53:21;;;;;;;10.88;5.13;;;26.80;99.90;;;;;;6212864;23;20181;-79
2023/09/22 08:55:52;;;;;;;10.25;5.03;;;26.80;99.90;;;;;;6213021;23;20171;-76
2023/09/22 08:58:20;;;;;;;9.15;4.75;;;26.90;99.90;;;;;;6212643;23;20560;-75
2023/09/22 09:00:51;;;;;;;11.07;5.13;;;27.10;99.90;;;;;;6212399;23;20257;-75
2023/09/22 09:03:20;;;;;;;9.77;5.22;;;27.00;99.90;;;;;;6212205;23;20361;-77
2023/09/22 09:05:49;;;;;;;8.38;4.60;;;27.10;99.90;;;;;;6186054;23;20498;-76
2023/09/22 09:08:20;;;;;;;12.48;5.40;;;27.10;99.90;;;;;;6212666;23;20186;-78
2023/09/22 09:10:48;;;;;;;18.60;6.28;;;27.00;99.90;;;;;;6213245;23;20171;-76
2023/09/22 09:13:20;;;;;;;10.48;5.47;;;27.20;99.90;;;;;;6213443;23;20197;-76
2023/09/22 09:15:54;;;;;;;12.35;5.63;;;27.60;99.90;;;;;;6212674;23;20162;-77
2023/09/22 09:18:23;;;;;;;10.68;5.35;;;27.90;99.90;;;;;;6212399;23;20167;-78
2023/09/22 09:21:06;;;;;;;11.10;5.30;;;28.00;99.90;;;;;;6213099;23;20278;-75
2023/09/22 09:23:33;;;;;;;11.07;5.32;;;28.00;99.90;;;;;;6212845;23;20195;-75
2023/09/22 09:26:02;;;;;;;9.88;4.97;;;28.10;99.90;;;;;;6213590;23;20364;-77
2023/09/22 09:28:30;;;;;;;9.32;4.90;;;28.20;99.90;;;;;;6213142;23;20221;-78
2023/09/22 09:30:59;;;;;;;10.13;4.90;;;28.40;99.90;;;;;;6212355;23;20167;-79
2023/09/22 09:33:30;;;;;;;10.40;5.30;;;28.90;99.90;;;;;;6213693;23;20171;-77
2023/09/22 09:35:58;;;;;;;7.10;4.90;;;28.90;99.90;;;;;;6213021;23;20237;-79
2023/09/22 09:38:27;;;;;;;12.25;5.10;;;29.00;99.90;;;;;;6213679;23;20170;-80
2023/09/22 09:40:56;;;;;;;12.95;5.10;;;29.10;99.90;;;;;;6212911;23;20171;-78
2023/09/22 09:43:24;;;;;;;10.40;4.75;;;29.40;99.90;;;;;;6212506;23;20512;-76
2023/09/22 09:45:57;;;;;;;11.82;4.80;;;29.30;99.90;;;;;;6212620;23;20241;-78
2023/09/22 09:48:26;;;;;;;11.43;4.88;;;29.40;99.90;;;;;;6213081;23;20167;-79
2023/09/22 09:50:58;;;;;;;9.75;4.80;;;29.50;99.90;;;;;;6211655;23;20187;-76
2023/09/22 09:53:31;;;;;;;12.45;4.70;;;29.70;99.90;;;;;;6212110;23;20179;-78
2023/09/22 09:56:05;;;;;;;12.40;5.03;;;30.00;99.90;;;;;;6213308;23;20167;-80
2023/09/22 09:58:37;;;;;;;12.20;4.53;;;30.10;99.90;;;;;;6212267;23;20220;-75
2023/09/22 10:01:05;;;;;;;6.93;4.70;;;30.10;99.90;;;;;;6213067;23;20170;-74
2023/09/22 10:03:36;;;;;;;9.05;4.53;;;30.40;99.90;;;;;;6213983;23;20195;-79
2023/09/22 10:06:06;;;;;;;14.15;4.82;;;30.50;99.90;;;;;;6181364;23;20681;-78
2023/09/22 10:08:34;;;;;;;12.23;4.78;;;30.40;99.90;;;;;;6183966;23;20167;-79
2023/09/22 10:11:10;;;;;;;8.48;4.35;;;30.50;99.90;;;;;;6181174;23;20175;-79
2023/09/22 10:13:45;;;;;;;6.63;4.47;;;30.60;99.90;;;;;;6183814;23;20599;-81
2023/09/22 10:16:31;;;;;;;8.82;4.43;;;30.60;99.90;;;;;;6182303;23;20176;-78
2023/09/22 10:19:00;;;;;;;9.35;4.13;;;30.70;99.90;;;;;;6156994;23;20570;-80
2023/09/22 10:21:45;;;;;;;8.63;4.60;;;30.30;99.90;;;;;;6182494;23;20639;-79
2023/09/22 10:24:32;;;;;;;9.35;4.30;;;30.10;99.90;;;;;;6181058;23;20422;-75
2023/09/22 10:27:08;;;;;;;10.43;4.47;;;30.20;99.90;;;;;;6180231;23;20175;-76
2023/09/22 10:29:41;;;;;;;10.38;4.57;;;30.40;99.90;;;;;;6181750;23;20171;-75
2023/09/22 10:32:24;;;;;;;10.95;4.47;;;30.60;99.90;;;;;;6181832;23;20163;-76
2023/09/22 10:35:05;;;;;;;8.65;4.45;;;30.30;99.90;;;;;;6182836;23;20175;-75
2023/09/22 10:37:37;;;;;;;8.48;4.80;;;29.50;99.90;;;;;;6181536;23;20187;-76
2023/09/22 10:40:08;;;;;;;8.75;4.50;;;29.60;99.90;;;;;;6183222;23;20176;-81
2023/09/22 10:42:52;;;;;;;9.68;4.72;;;29.50;99.90;;;;;;6180982;23;20202;-78
2023/09/22 10:45:25;;;;;;;9.52;4.70;;;29.30;99.90;;;;;;6183255;23;20167;-75
2023/09/22 10:47:53;;;;;;;13.75;5.10;;;29.10;99.90;;;;;;6183080;23;20198;-77
2023/09/22 10:50:21;;;;;;;9.40;4.93;;;28.80;99.90;;;;;;6182369;23;20175;-76
2023/09/22 10:52:53;;;;;;;14.27;5.32;;;28.60;99.90;;;;;;6183935;23;20498;-75
2023/09/22 10:55:30;;;;;;;10.57;5.03;;;28.50;99.90;;;;;;6185966;23;20201;-79
2023/09/22 10:57:59;;;;;;;10.77;4.90;;;28.10;99.90;;;;;;6185152;23;20251;-79
2023/09/22 11:00:27;;;;;;;12.45;5.40;;;27.80;99.90;;;;;;6184152;23;20178;-80
2023/09/22 11:03:02;;;;;;;10.55;5.30;;;27.50;99.90;;;;;;6183380;23;20195;-80
2023/09/22 11:05:30;;;;;;;10.57;5.20;;;27.10;99.90;;;;;;6184013;23;20198;-79
2023/09/22 11:07:58;;;;;;;10.50;5.38;;;26.80;99.90;;;;;;6213506;23;20610;-80
2023/09/22 11:10:25;;;;;;;9.60;5.53;;;26.50;99.90;;;;;;6216073;23;20177;-79
2023/09/22 11:12:54;;;;;;;12.00;6.05;;;26.60;99.90;;;;;;6216601;23;20195;-79
2023/09/22 11:15:22;;;;;;;16.80;6.28;;;26.80;99.90;;;;;;6215457;23;20167;-74
2023/09/22 11:17:50;;;;;;;12.60;6.13;;;27.10;99.90;;;;;;6212909;23;20167;-75
2023/09/22 11:20:18;;;;;;;12.43;5.80;;;27.40;99.90;;;;;;6214310;23;20167;-75
2023/09/22 11:22:46;;;;;;;10.82;6.18;;;27.60;99.90;;;;;;6214534;23;20193;-80
2023/09/22 11:25:14;;;;;;;10.13;5.72;;;28.00;99.90;;;;;;6186949;23;20186;-80
2023/09/22 11:27:48;;;;;;;11.55;5.70;;;28.60;99.90;;;;;;6188675;23;20233;-76
2023/09/22 11:30:19;;;;;;;8.98;5.20;;;29.40;99.90;;;;;;6213374;23;20577;-79
2023/09/22 11:32:47;;;;;;;8.50;5.35;;;30.30;99.90;;;;;;6213620;23;20171;-79
2023/09/22 11:35:37;;;;;;;12.20;5.50;;;30.50;99.90;;;;;;6214993;23;20187;-74
2023/09/22 11:38:28;;;;;;;9.98;5.72;;;30.40;99.90;;;;;;6215000;23;20503;-76
2023/09/22 11:40:59;;;;;;;9.23;5.05;;;30.70;99.90;;;;;;6188249;23;20180;-76
2023/09/22 11:43:27;;;;;;;9.85;4.93;;;31.30;99.90;;;;;;6213781;23;20217;-76
2023/09/22 11:46:11;;;;;;;9.05;5.20;;;31.90;99.90;;;;;;6213939;23;20254;-78
2023/09/22 11:48:59;;;;;;;11.95;4.63;;;32.70;99.90;;;;;;6213131;23;20198;-77
2023/09/22 11:51:43;;;;;;;18.38;5.13;;;33.00;99.90;;;;;;6213419;23;20197;-76
2023/09/22 11:54:13;;;;;;;8.90;4.82;;;33.10;99.90;;;;;;6214024;23;20174;-82
2023/09/22 11:56:50;;;;;;;12.65;4.93;;;33.10;99.70;;;;;;6164219;23;20197;-83
2023/09/22 11:59:30;;;;;;;7.18;4.32;;;33.80;98.80;;;;;;6213293;23;20170;-82
2023/09/22 12:02:04;;;;;;;12.75;4.90;;;34.20;97.30;;;;;;6188127;23;20599;-81
2023/09/22 12:04:37;;;;;;;8.25;4.60;;;34.40;96.30;;;;;;6187199;23;20206;-85
2023/09/22 12:07:13;;;;;;;13.88;4.90;;;34.20;96.00;;;;;;6121726;23;20204;-86
2023/09/22 12:09:48;;;;;;;9.38;4.97;;;34.30;95.90;;;;;;6098228;23;20169;-80
2023/09/22 12:12:21;;;;;;;7.55;4.43;;;34.70;94.60;;;;;;6121948;23;20555;-85
2023/09/22 12:14:54;;;;;;;8.90;4.40;;;34.40;94.80;;;;;;6121904;23;20165;-80
2023/09/22 12:17:25;;;;;;;7.30;4.30;;;34.40;94.10;;;;;;6122547;23;20173;-81
2023/09/22 12:20:14;;;;;;;8.95;4.40;;;34.00;94.50;;;;;;6122232;23;20219;-80
2023/09/22 12:22:45;;;;;;;13.05;5.10;;;34.30;94.10;;;;;;6098267;23;20273;-79
2023/09/22 12:25:20;;;;;;;8.15;4.40;;;34.80;92.90;;;;;;6168578;23;20475;-79
2023/09/22 12:27:54;;;;;;;11.65;4.65;;;34.50;92.80;;;;;;6213909;23;20167;-80
2023/09/22 12:30:22;;;;;;;8.82;4.40;;;33.50;93.40;;;;;;6212712;23;20359;-83
2023/09/22 12:32:52;;;;;;;10.30;4.70;;;32.90;94.40;;;;;;6188426;23;20175;-82
2023/09/22 12:35:28;;;;;;;10.13;4.60;;;32.80;94.60;;;;;;6212060;23;20173;-75
2023/09/22 12:37:58;;;;;;;7.70;4.75;;;32.10;94.80;;;;;;6214667;23;20167;-77
2023/09/22 12:40:26;;;;;;;7.25;4.60;;;31.30;96.10;;;;;;6213854;23;20540;-76
2023/09/22 12:42:54;;;;;;;9.63;4.80;;;30.70;97.00;;;;;;6213987;23;20254;-81
2023/09/22 12:45:25;;;;;;;9.00;5.10;;;30.30;97.80;;;;;;6214479;23;20167;-80
2023/09/22 12:48:01;;;;;;;12.00;4.82;;;29.80;98.40;;;;;;6213475;23;20167;-84
2023/09/22 12:50:29;;;;;;;13.02;5.07;;;29.50;99.40;;;;;;6187348;23;20174;-79
2023/09/22 12:52:58;;;;;;;10.90;4.75;;;29.10;99.90;;;;;;6212732;23;20183;-80
2023/09/22 12:55:29;;;;;;;9.95;4.72;;;28.60;99.90;;;;;;6213091;23;20213;-78
2023/09/22 12:58:00;;;;;;;7.57;5.00;;;28.40;99.90;;;;;;6186886;23;20224;-80
2023/09/22 13:00:28;;;;;;;9.23;5.20;;;28.20;99.90;;;;;;6187258;23;20163;-80
2023/09/22 13:03:13;;;;;;;8.48;5.07;;;28.20;99.90;;;;;;6162868;23;20171;-80